sensor_id;sensor_type;location;lat;lon;timestamp;pressure;altitude;pressure_sealevel;temperature;humidity
72370;BME280;60343;-32.030;115.880;2023-02-02T00:02:29;101650.03;;;23.91;39.84
72370;BME280;60343;-32.030;115.880;2023-02-02T00:05:05;101653.25;;;23.88;39.71
72370;BME280;60343;-32.030;115.880;2023-02-02T00:07:40;101667.78;;;23.88;39.26
72370;BME280;60343;-32.030;115.880;2023-02-02T00:10:16;101659.75;;;24.22;38.96
72370;BME280;60343;-32.030;115.880;2023-02-02T00:12:51;101662.72;;;24.60;39.08
72370;BME280;60343;-32.030;115.880;2023-02-02T00:15:33;101660.25;;;24.87;38.19
72370;BME280;60343;-32.030;115.880;2023-02-02T00:18:09;101670.31;;;24.98;38.04
72370;BME280;60343;-32.030;115.880;2023-02-02T00:20:44;101659.03;;;24.95;37.71
72370;BME280;60343;-32.030;115.880;2023-02-02T00:23:20;101667.44;;;25.21;37.60
72370;BME280;60343;-32.030;115.880;2023-02-02T00:25:56;101662.69;;;25.17;37.09
72370;BME280;60343;-32.030;115.880;2023-02-02T00:28:31;101663.00;;;25.20;37.58
72370;BME280;60343;-32.030;115.880;2023-02-02T00:31:12;101652.97;;;25.43;37.09
72370;BME280;60343;-32.030;115.880;2023-02-02T00:33:49;101656.06;;;25.63;36.87
72370;BME280;60343;-32.030;115.880;2023-02-02T00:36:24;101664.28;;;25.80;37.09
72370;BME280;60343;-32.030;115.880;2023-02-02T00:39:00;101663.75;;;25.83;36.25
72370;BME280;60343;-32.030;115.880;2023-02-02T00:41:35;101657.56;;;25.92;36.38
72370;BME280;60343;-32.030;115.880;2023-02-02T00:44:11;101657.66;;;26.41;36.24
72370;BME280;60343;-32.030;115.880;2023-02-02T00:47:00;101654.50;;;26.76;35.08
72370;BME280;60343;-32.030;115.880;2023-02-02T00:49:36;101657.22;;;26.98;34.76
72370;BME280;60343;-32.030;115.880;2023-02-02T00:52:11;101653.25;;;27.15;34.03
72370;BME280;60343;-32.030;115.880;2023-02-02T00:54:46;101660.59;;;27.42;34.02
72370;BME280;60343;-32.030;115.880;2023-02-02T00:57:22;101652.13;;;27.48;33.94
72370;BME280;60343;-32.030;115.880;2023-02-02T00:59:57;101659.47;;;27.69;33.56
72370;BME280;60343;-32.030;115.880;2023-02-02T01:02:40;101649.03;;;27.77;33.23
72370;BME280;60343;-32.030;115.880;2023-02-02T01:05:15;101654.75;;;28.12;33.16
72370;BME280;60343;-32.030;115.880;2023-02-02T01:07:51;101649.31;;;28.27;32.45
72370;BME280;60343;-32.030;115.880;2023-02-02T01:10:26;101653.19;;;28.26;32.15
72370;BME280;60343;-32.030;115.880;2023-02-02T01:13:02;101639.22;;;27.91;32.75
72370;BME280;60343;-32.030;115.880;2023-02-02T01:15:38;101644.88;;;27.69;33.14
72370;BME280;60343;-32.030;115.880;2023-02-02T01:18:19;101639.47;;;27.84;33.14
72370;BME280;60343;-32.030;115.880;2023-02-02T01:20:57;101646.50;;;28.12;32.49
72370;BME280;60343;-32.030;115.880;2023-02-02T01:23:34;101631.41;;;28.20;32.75
72370;BME280;60343;-32.030;115.880;2023-02-02T01:26:11;101636.97;;;28.35;32.24
72370;BME280;60343;-32.030;115.880;2023-02-02T01:28:47;101637.50;;;28.27;32.30
72370;BME280;60343;-32.030;115.880;2023-02-02T01:31:22;101634.81;;;28.47;31.94
72370;BME280;60343;-32.030;115.880;2023-02-02T01:34:04;101626.25;;;28.43;32.19
72370;BME280;60343;-32.030;115.880;2023-02-02T01:36:39;101626.28;;;28.58;32.13
72370;BME280;60343;-32.030;115.880;2023-02-02T01:39:15;101620.31;;;28.87;32.22
72370;BME280;60343;-32.030;115.880;2023-02-02T01:41:50;101610.03;;;28.67;31.92
72370;BME280;60343;-32.030;115.880;2023-02-02T01:47:32;101614.41;;;28.48;31.90
72370;BME280;60343;-32.030;115.880;2023-02-02T01:50:16;101608.09;;;28.63;31.64
72370;BME280;60343;-32.030;115.880;2023-02-02T01:52:54;101610.91;;;28.73;31.70
72370;BME280;60343;-32.030;115.880;2023-02-02T01:55:33;101600.63;;;28.53;31.68
72370;BME280;60343;-32.030;115.880;2023-02-02T01:58:13;101607.00;;;28.69;31.92
72370;BME280;60343;-32.030;115.880;2023-02-02T02:00:49;101606.78;;;29.00;31.50
72370;BME280;60343;-32.030;115.880;2023-02-02T02:03:27;101612.84;;;29.38;30.72
72370;BME280;60343;-32.030;115.880;2023-02-02T02:06:08;101593.22;;;29.60;31.04
72370;BME280;60343;-32.030;115.880;2023-02-02T02:08:48;101587.03;;;29.98;30.60
72370;BME280;60343;-32.030;115.880;2023-02-02T02:11:25;101588.16;;;29.87;30.20
72370;BME280;60343;-32.030;115.880;2023-02-02T02:14:03;101590.78;;;30.27;30.21
72370;BME280;60343;-32.030;115.880;2023-02-02T02:16:57;101591.28;;;30.30;29.00
72370;BME280;60343;-32.030;115.880;2023-02-02T02:26:42;101577.22;;;30.26;29.47
72370;BME280;60343;-32.030;115.880;2023-02-02T02:29:44;101572.41;;;30.03;29.87
72370;BME280;60343;-32.030;115.880;2023-02-02T02:32:36;101571.22;;;30.14;29.73
72370;BME280;60343;-32.030;115.880;2023-02-02T02:35:21;101577.06;;;30.07;29.58
72370;BME280;60343;-32.030;115.880;2023-02-02T02:38:07;101567.38;;;30.10;30.09
72370;BME280;60343;-32.030;115.880;2023-02-02T02:40:46;101562.84;;;30.29;29.54
72370;BME280;60343;-32.030;115.880;2023-02-02T02:43:28;101565.66;;;30.19;29.60
72370;BME280;60343;-32.030;115.880;2023-02-02T02:46:06;101561.75;;;30.25;29.41
72370;BME280;60343;-32.030;115.880;2023-02-02T02:48:50;101558.00;;;30.06;29.48
72370;BME280;60343;-32.030;115.880;2023-02-02T02:51:42;101551.03;;;30.18;29.71
72370;BME280;60343;-32.030;115.880;2023-02-02T02:54:21;101552.56;;;30.40;29.41
72370;BME280;60343;-32.030;115.880;2023-02-02T02:57:12;101559.00;;;30.25;29.42
72370;BME280;60343;-32.030;115.880;2023-02-02T03:00:00;101546.50;;;30.38;29.23
72370;BME280;60343;-32.030;115.880;2023-02-02T03:02:43;101542.16;;;30.65;29.26
72370;BME280;60343;-32.030;115.880;2023-02-02T03:05:37;101535.16;;;30.78;28.61
72370;BME280;60343;-32.030;115.880;2023-02-02T03:08:19;101529.13;;;31.00;29.19
72370;BME280;60343;-32.030;115.880;2023-02-02T03:10:57;101539.53;;;31.18;27.81
72370;BME280;60343;-32.030;115.880;2023-02-02T03:13:34;101536.59;;;31.33;28.39
72370;BME280;60343;-32.030;115.880;2023-02-02T03:16:10;101528.97;;;31.20;27.75
72370;BME280;60343;-32.030;115.880;2023-02-02T03:18:46;101514.75;;;31.32;27.94
72370;BME280;60343;-32.030;115.880;2023-02-02T03:21:28;101514.97;;;31.35;27.98
72370;BME280;60343;-32.030;115.880;2023-02-02T03:24:04;101510.31;;;31.54;27.94
72370;BME280;60343;-32.030;115.880;2023-02-02T03:26:39;101527.28;;;31.72;27.42
72370;BME280;60343;-32.030;115.880;2023-02-02T03:29:15;101509.75;;;31.58;27.40
72370;BME280;60343;-32.030;115.880;2023-02-02T03:31:51;101516.63;;;31.60;28.05
72370;BME280;60343;-32.030;115.880;2023-02-02T03:34:26;101510.22;;;31.65;27.47
72370;BME280;60343;-32.030;115.880;2023-02-02T03:37:10;101503.78;;;31.69;28.12
72370;BME280;60343;-32.030;115.880;2023-02-02T03:39:45;101503.44;;;31.76;27.46
72370;BME280;60343;-32.030;115.880;2023-02-02T03:42:20;101503.00;;;32.06;27.45
72370;BME280;60343;-32.030;115.880;2023-02-02T03:44:59;101500.78;;;32.27;26.62
72370;BME280;60343;-32.030;115.880;2023-02-02T03:47:35;101497.41;;;32.30;26.77
72370;BME280;60343;-32.030;115.880;2023-02-02T03:50:14;101491.78;;;32.35;26.70
72370;BME280;60343;-32.030;115.880;2023-02-02T03:52:55;101489.84;;;32.17;26.61
72370;BME280;60343;-32.030;115.880;2023-02-02T03:55:31;101476.22;;;32.39;27.16
72370;BME280;60343;-32.030;115.880;2023-02-02T03:58:08;101484.59;;;32.34;26.01
72370;BME280;60343;-32.030;115.880;2023-02-02T04:00:44;101482.41;;;32.31;25.98
72370;BME280;60343;-32.030;115.880;2023-02-02T04:03:19;101484.56;;;32.53;26.20
72370;BME280;60343;-32.030;115.880;2023-02-02T04:05:55;101476.16;;;32.58;24.85
72370;BME280;60343;-32.030;115.880;2023-02-02T04:08:36;101479.81;;;32.72;25.49
72370;BME280;60343;-32.030;115.880;2023-02-02T04:11:12;101467.41;;;32.69;25.86
72370;BME280;60343;-32.030;115.880;2023-02-02T04:13:48;101474.06;;;32.68;25.35
72370;BME280;60343;-32.030;115.880;2023-02-02T04:16:23;101459.09;;;32.83;25.23
72370;BME280;60343;-32.030;115.880;2023-02-02T04:19:01;101442.16;;;32.98;24.51
72370;BME280;60343;-32.030;115.880;2023-02-02T04:21:37;101457.50;;;33.09;24.87
72370;BME280;60343;-32.030;115.880;2023-02-02T04:24:18;101446.41;;;33.23;23.92
72370;BME280;60343;-32.030;115.880;2023-02-02T04:26:53;101444.31;;;33.56;24.01
72370;BME280;60343;-32.030;115.880;2023-02-02T04:29:29;101440.94;;;33.59;23.95
72370;BME280;60343;-32.030;115.880;2023-02-02T04:32:04;101440.75;;;33.69;23.14
72370;BME280;60343;-32.030;115.880;2023-02-02T04:34:40;101434.03;;;33.70;23.44
72370;BME280;60343;-32.030;115.880;2023-02-02T04:37:15;101422.06;;;33.83;22.13
72370;BME280;60343;-32.030;115.880;2023-02-02T04:39:57;101425.38;;;34.08;22.32
72370;BME280;60343;-32.030;115.880;2023-02-02T04:42:32;101425.78;;;34.15;22.01
72370;BME280;60343;-32.030;115.880;2023-02-02T04:45:08;101412.47;;;34.25;21.81
72370;BME280;60343;-32.030;115.880;2023-02-02T04:47:46;101408.53;;;34.04;21.74
72370;BME280;60343;-32.030;115.880;2023-02-02T04:50:22;101412.38;;;34.17;22.10
72370;BME280;60343;-32.030;115.880;2023-02-02T04:52:57;101404.03;;;34.17;20.46
72370;BME280;60343;-32.030;115.880;2023-02-02T04:55:38;101392.06;;;34.30;20.78
72370;BME280;60343;-32.030;115.880;2023-02-02T04:58:14;101394.44;;;34.76;19.98
72370;BME280;60343;-32.030;115.880;2023-02-02T05:00:49;101399.72;;;34.86;19.09
72370;BME280;60343;-32.030;115.880;2023-02-02T05:03:25;101386.78;;;34.81;19.32
72370;BME280;60343;-32.030;115.880;2023-02-02T05:06:05;101386.03;;;34.98;20.06
72370;BME280;60343;-32.030;115.880;2023-02-02T05:08:41;101380.53;;;35.15;19.93
72370;BME280;60343;-32.030;115.880;2023-02-02T05:11:23;101386.34;;;35.53;19.14
72370;BME280;60343;-32.030;115.880;2023-02-02T05:13:59;101381.09;;;35.43;17.80
72370;BME280;60343;-32.030;115.880;2023-02-02T05:16:34;101371.44;;;34.93;18.24
72370;BME280;60343;-32.030;115.880;2023-02-02T05:19:11;101366.84;;;34.97;18.54
72370;BME280;60343;-32.030;115.880;2023-02-02T05:21:46;101360.38;;;35.10;17.33
72370;BME280;60343;-32.030;115.880;2023-02-02T05:24:22;101358.06;;;35.12;17.16
72370;BME280;60343;-32.030;115.880;2023-02-02T05:27:04;101352.06;;;35.18;16.49
72370;BME280;60343;-32.030;115.880;2023-02-02T05:29:39;101351.41;;;35.21;17.18
72370;BME280;60343;-32.030;115.880;2023-02-02T05:32:14;101354.06;;;35.35;16.94
72370;BME280;60343;-32.030;115.880;2023-02-02T05:34:50;101335.84;;;35.38;16.97
72370;BME280;60343;-32.030;115.880;2023-02-02T05:37:27;101313.59;;;35.55;15.83
72370;BME280;60343;-32.030;115.880;2023-02-02T05:40:03;101337.69;;;35.85;15.97
72370;BME280;60343;-32.030;115.880;2023-02-02T05:42:47;101323.91;;;35.97;16.11
72370;BME280;60343;-32.030;115.880;2023-02-02T05:45:23;101321.13;;;36.06;15.61
72370;BME280;60343;-32.030;115.880;2023-02-02T05:47:59;101319.44;;;36.22;15.17
72370;BME280;60343;-32.030;115.880;2023-02-02T05:50:35;101324.97;;;36.39;15.78
72370;BME280;60343;-32.030;115.880;2023-02-02T05:53:11;101323.31;;;36.38;14.49
72370;BME280;60343;-32.030;115.880;2023-02-02T05:55:48;101308.91;;;36.36;13.64
72370;BME280;60343;-32.030;115.880;2023-02-02T05:58:30;101303.63;;;36.43;13.26
72370;BME280;60343;-32.030;115.880;2023-02-02T06:01:06;101302.91;;;36.55;12.89
72370;BME280;60343;-32.030;115.880;2023-02-02T06:03:41;101300.78;;;36.52;13.04
72370;BME280;60343;-32.030;115.880;2023-02-02T06:06:17;101308.63;;;36.59;13.12
72370;BME280;60343;-32.030;115.880;2023-02-02T06:08:53;101303.19;;;36.71;12.56
72370;BME280;60343;-32.030;115.880;2023-02-02T06:11:33;101296.09;;;36.82;12.01
72370;BME280;60343;-32.030;115.880;2023-02-02T06:14:14;101295.00;;;36.95;12.76
72370;BME280;60343;-32.030;115.880;2023-02-02T06:16:50;101298.00;;;37.19;12.44
72370;BME280;60343;-32.030;115.880;2023-02-02T06:19:29;101279.91;;;37.37;11.53
72370;BME280;60343;-32.030;115.880;2023-02-02T06:22:05;101278.94;;;37.42;11.29
72370;BME280;60343;-32.030;115.880;2023-02-02T06:24:40;101275.84;;;37.14;11.14
72370;BME280;60343;-32.030;115.880;2023-02-02T06:27:16;101270.63;;;37.04;11.17
72370;BME280;60343;-32.030;115.880;2023-02-02T06:29:57;101271.28;;;37.10;11.68
72370;BME280;60343;-32.030;115.880;2023-02-02T06:32:32;101262.56;;;37.11;11.37
72370;BME280;60343;-32.030;115.880;2023-02-02T06:35:09;101256.38;;;37.26;12.43
72370;BME280;60343;-32.030;115.880;2023-02-02T06:37:44;101271.28;;;37.10;12.05
72370;BME280;60343;-32.030;115.880;2023-02-02T06:40:20;101252.59;;;37.22;11.30
72370;BME280;60343;-32.030;115.880;2023-02-02T06:42:59;101258.19;;;37.22;11.78
72370;BME280;60343;-32.030;115.880;2023-02-02T06:45:41;101245.25;;;37.38;12.09
72370;BME280;60343;-32.030;115.880;2023-02-02T06:48:17;101245.03;;;37.44;11.37
72370;BME280;60343;-32.030;115.880;2023-02-02T06:50:53;101236.75;;;37.68;11.24
72370;BME280;60343;-32.030;115.880;2023-02-02T06:53:34;101232.78;;;37.36;11.79
72370;BME280;60343;-32.030;115.880;2023-02-02T06:56:12;101238.19;;;37.53;11.99
72370;BME280;60343;-32.030;115.880;2023-02-02T06:58:47;101229.78;;;37.74;11.35
72370;BME280;60343;-32.030;115.880;2023-02-02T07:01:29;101225.03;;;37.74;11.67
72370;BME280;60343;-32.030;115.880;2023-02-02T07:04:04;101210.72;;;37.76;11.29
72370;BME280;60343;-32.030;115.880;2023-02-02T07:06:40;101215.00;;;37.61;11.85
72370;BME280;60343;-32.030;115.880;2023-02-02T07:09:15;101209.97;;;38.00;12.40
72370;BME280;60343;-32.030;115.880;2023-02-02T07:11:50;101212.06;;;38.39;11.52
72370;BME280;60343;-32.030;115.880;2023-02-02T07:14:26;101210.56;;;38.42;11.43
72370;BME280;60343;-32.030;115.880;2023-02-02T07:17:07;101203.09;;;38.09;11.16
72370;BME280;60343;-32.030;115.880;2023-02-02T07:19:43;101201.47;;;38.08;10.77
72370;BME280;60343;-32.030;115.880;2023-02-02T07:22:18;101207.03;;;37.96;11.12
72370;BME280;60343;-32.030;115.880;2023-02-02T07:24:53;101198.22;;;38.06;12.04
72370;BME280;60343;-32.030;115.880;2023-02-02T07:27:29;101189.59;;;38.11;10.97
72370;BME280;60343;-32.030;115.880;2023-02-02T07:30:05;101194.72;;;38.21;11.15
72370;BME280;60343;-32.030;115.880;2023-02-02T07:32:47;101183.03;;;37.95;11.67
72370;BME280;60343;-32.030;115.880;2023-02-02T07:35:22;101186.31;;;38.09;11.95
72370;BME280;60343;-32.030;115.880;2023-02-02T07:37:58;101169.75;;;38.41;12.08
72370;BME280;60343;-32.030;115.880;2023-02-02T07:40:33;101170.66;;;38.69;11.81
72370;BME280;60343;-32.030;115.880;2023-02-02T07:43:09;101170.66;;;38.69;11.29
72370;BME280;60343;-32.030;115.880;2023-02-02T07:45:46;101166.41;;;38.11;11.56
72370;BME280;60343;-32.030;115.880;2023-02-02T07:48:27;101175.03;;;38.06;12.13
72370;BME280;60343;-32.030;115.880;2023-02-02T07:51:03;101166.75;;;38.21;11.97
72370;BME280;60343;-32.030;115.880;2023-02-02T07:53:42;101160.56;;;38.16;11.63
72370;BME280;60343;-32.030;115.880;2023-02-02T07:56:19;101152.75;;;37.97;12.46
72370;BME280;60343;-32.030;115.880;2023-02-02T07:58:56;101157.72;;;37.79;12.54
72370;BME280;60343;-32.030;115.880;2023-02-02T08:01:32;101152.81;;;37.64;12.62
72370;BME280;60343;-32.030;115.880;2023-02-02T08:04:15;101167.69;;;37.56;12.78
72370;BME280;60343;-32.030;115.880;2023-02-02T08:06:50;101146.25;;;37.15;12.71
72370;BME280;60343;-32.030;115.880;2023-02-02T08:09:30;101150.53;;;36.92;12.56
72370;BME280;60343;-32.030;115.880;2023-02-02T08:12:06;101155.22;;;36.79;11.95
72370;BME280;60343;-32.030;115.880;2023-02-02T08:14:41;101138.91;;;36.40;12.62
72370;BME280;60343;-32.030;115.880;2023-02-02T08:17:17;101146.34;;;36.27;13.06
72370;BME280;60343;-32.030;115.880;2023-02-02T08:19:58;101141.03;;;36.13;13.23
72370;BME280;60343;-32.030;115.880;2023-02-02T08:22:33;101140.75;;;35.98;13.27
72370;BME280;60343;-32.030;115.880;2023-02-02T08:25:09;101144.53;;;35.93;12.93
72370;BME280;60343;-32.030;115.880;2023-02-02T08:27:45;101144.72;;;35.88;13.25
72370;BME280;60343;-32.030;115.880;2023-02-02T08:30:21;101133.75;;;35.83;13.99
72370;BME280;60343;-32.030;115.880;2023-02-02T08:32:57;101129.44;;;35.94;14.11
72370;BME280;60343;-32.030;115.880;2023-02-02T08:35:40;101122.09;;;35.90;13.83
72370;BME280;60343;-32.030;115.880;2023-02-02T08:38:16;101129.00;;;35.84;14.10
72370;BME280;60343;-32.030;115.880;2023-02-02T08:41:03;101120.16;;;35.82;14.05
72370;BME280;60343;-32.030;115.880;2023-02-02T08:43:39;101115.00;;;35.54;13.91
72370;BME280;60343;-32.030;115.880;2023-02-02T08:46:16;101111.78;;;35.35;14.22
72370;BME280;60343;-32.030;115.880;2023-02-02T08:48:51;101121.63;;;35.24;14.30
72370;BME280;60343;-32.030;115.880;2023-02-02T08:51:38;101111.81;;;35.18;13.97
72370;BME280;60343;-32.030;115.880;2023-02-02T08:54:13;101107.88;;;35.02;14.70
72370;BME280;60343;-32.030;115.880;2023-02-02T08:56:52;101119.69;;;34.90;14.67
72370;BME280;60343;-32.030;115.880;2023-02-02T08:59:27;101116.41;;;34.79;15.01
72370;BME280;60343;-32.030;115.880;2023-02-02T09:02:03;101124.56;;;34.76;15.27
72370;BME280;60343;-32.030;115.880;2023-02-02T09:04:49;101124.25;;;34.69;15.25
72370;BME280;60343;-32.030;115.880;2023-02-02T09:07:32;101120.28;;;34.61;15.00
72370;BME280;60343;-32.030;115.880;2023-02-02T09:10:09;101121.91;;;34.45;14.85
72370;BME280;60343;-32.030;115.880;2023-02-02T09:12:54;101117.00;;;34.42;15.46
72370;BME280;60343;-32.030;115.880;2023-02-02T09:15:31;101126.97;;;34.43;14.91
72370;BME280;60343;-32.030;115.880;2023-02-02T09:18:06;101106.53;;;34.30;15.25
72370;BME280;60343;-32.030;115.880;2023-02-02T09:20:42;101117.63;;;34.30;15.27
72370;BME280;60343;-32.030;115.880;2023-02-02T09:23:30;101115.03;;;34.34;15.73
72370;BME280;60343;-32.030;115.880;2023-02-02T09:26:14;101119.25;;;34.23;15.89
72370;BME280;60343;-32.030;115.880;2023-02-02T09:28:50;101118.44;;;34.22;15.99
72370;BME280;60343;-32.030;115.880;2023-02-02T09:31:27;101118.06;;;34.15;16.07
72370;BME280;60343;-32.030;115.880;2023-02-02T09:34:03;101110.19;;;34.09;16.15
72370;BME280;60343;-32.030;115.880;2023-02-02T09:36:42;101112.00;;;34.13;16.39
72370;BME280;60343;-32.030;115.880;2023-02-02T09:39:24;101106.44;;;34.04;15.96
72370;BME280;60343;-32.030;115.880;2023-02-02T09:42:10;101107.56;;;34.03;16.11
72370;BME280;60343;-32.030;115.880;2023-02-02T09:44:57;101111.78;;;34.01;16.29
72370;BME280;60343;-32.030;115.880;2023-02-02T09:47:53;101106.03;;;33.89;16.71
72370;BME280;60343;-32.030;115.880;2023-02-02T09:50:37;101109.00;;;33.92;17.01
72370;BME280;60343;-32.030;115.880;2023-02-02T09:53:37;101122.84;;;33.84;16.60
72370;BME280;60343;-32.030;115.880;2023-02-02T09:56:25;101109.56;;;33.72;16.81
72370;BME280;60343;-32.030;115.880;2023-02-02T09:59:02;101121.44;;;33.64;17.07
72370;BME280;60343;-32.030;115.880;2023-02-02T10:01:41;101119.28;;;33.61;16.95
72370;BME280;60343;-32.030;115.880;2023-02-02T10:04:20;101120.09;;;33.61;17.15
72370;BME280;60343;-32.030;115.880;2023-02-02T10:06:59;101124.66;;;33.57;17.34
72370;BME280;60343;-32.030;115.880;2023-02-02T10:09:43;101123.34;;;33.55;16.84
72370;BME280;60343;-32.030;115.880;2023-02-02T10:12:32;101122.59;;;33.41;17.30
72370;BME280;60343;-32.030;115.880;2023-02-02T10:15:16;101125.03;;;33.34;17.46
72370;BME280;60343;-32.030;115.880;2023-02-02T10:17:56;101131.19;;;33.31;17.46
72370;BME280;60343;-32.030;115.880;2023-02-02T10:20:40;101131.19;;;33.31;17.37
72370;BME280;60343;-32.030;115.880;2023-02-02T10:23:24;101130.19;;;33.27;17.53
72370;BME280;60343;-32.030;115.880;2023-02-02T10:26:07;101139.69;;;33.12;17.07
72370;BME280;60343;-32.030;115.880;2023-02-02T10:29:06;101138.50;;;33.04;18.05
72370;BME280;60343;-32.030;115.880;2023-02-02T10:31:53;101140.00;;;32.88;18.03
72370;BME280;60343;-32.030;115.880;2023-02-02T10:34:39;101142.66;;;32.93;17.50
72370;BME280;60343;-32.030;115.880;2023-02-02T10:37:24;101144.31;;;32.81;17.96
72370;BME280;60343;-32.030;115.880;2023-02-02T10:40:16;101146.09;;;32.76;18.03
72370;BME280;60343;-32.030;115.880;2023-02-02T10:43:30;101153.59;;;32.62;17.83
72370;BME280;60343;-32.030;115.880;2023-02-02T10:46:33;101161.72;;;32.59;17.88
72370;BME280;60343;-32.030;115.880;2023-02-02T10:49:25;101157.53;;;32.48;17.79
72370;BME280;60343;-32.030;115.880;2023-02-02T10:52:15;101164.72;;;32.35;18.27
72370;BME280;60343;-32.030;115.880;2023-02-02T10:55:00;101158.34;;;32.34;17.86
72370;BME280;60343;-32.030;115.880;2023-02-02T10:57:56;101159.38;;;32.25;18.00
72370;BME280;60343;-32.030;115.880;2023-02-02T11:00:39;101154.47;;;32.22;18.19
72370;BME280;60343;-32.030;115.880;2023-02-02T11:03:25;101155.81;;;32.11;18.26
72370;BME280;60343;-32.030;115.880;2023-02-02T11:06:03;101163.72;;;32.17;18.08
72370;BME280;60343;-32.030;115.880;2023-02-02T11:09:04;101164.94;;;32.11;18.27
72370;BME280;60343;-32.030;115.880;2023-02-02T11:11:46;101157.91;;;32.00;18.60
72370;BME280;60343;-32.030;115.880;2023-02-02T11:14:35;101151.44;;;31.91;18.53
72370;BME280;60343;-32.030;115.880;2023-02-02T11:17:18;101150.63;;;31.77;18.87
72370;BME280;60343;-32.030;115.880;2023-02-02T11:20:01;101155.13;;;31.73;18.69
72370;BME280;60343;-32.030;115.880;2023-02-02T11:23:05;101165.69;;;31.71;18.76
72370;BME280;60343;-32.030;115.880;2023-02-02T11:25:58;101175.28;;;31.60;19.00
72370;BME280;60343;-32.030;115.880;2023-02-02T11:28:36;101176.66;;;31.62;18.89
72370;BME280;60343;-32.030;115.880;2023-02-02T11:31:30;101168.50;;;31.52;19.14
72370;BME280;60343;-32.030;115.880;2023-02-02T11:34:20;101182.41;;;31.47;19.22
72370;BME280;60343;-32.030;115.880;2023-02-02T11:37:20;101186.38;;;31.41;19.29
72370;BME280;60343;-32.030;115.880;2023-02-02T11:40:22;101192.13;;;31.12;19.37
72370;BME280;60343;-32.030;115.880;2023-02-02T11:43:03;101199.97;;;31.05;19.75
72370;BME280;60343;-32.030;115.880;2023-02-02T11:45:43;101192.19;;;31.07;19.85
72370;BME280;60343;-32.030;115.880;2023-02-02T11:48:20;101203.03;;;31.03;19.45
72370;BME280;60343;-32.030;115.880;2023-02-02T11:50:55;101209.94;;;31.01;19.87
72370;BME280;60343;-32.030;115.880;2023-02-02T11:53:48;101211.38;;;30.98;19.91
72370;BME280;60343;-32.030;115.880;2023-02-02T11:56:25;101216.66;;;30.76;20.42
72370;BME280;60343;-32.030;115.880;2023-02-02T11:59:01;101212.03;;;30.72;20.40
72370;BME280;60343;-32.030;115.880;2023-02-02T12:01:38;101218.91;;;30.74;20.58
72370;BME280;60343;-32.030;115.880;2023-02-02T12:04:24;101217.56;;;30.72;20.48
72370;BME280;60343;-32.030;115.880;2023-02-02T12:07:02;101224.88;;;30.62;20.43
72370;BME280;60343;-32.030;115.880;2023-02-02T12:10:13;101232.34;;;30.62;20.68
72370;BME280;60343;-32.030;115.880;2023-02-02T12:13:03;101234.47;;;30.46;20.91
72370;BME280;60343;-32.030;115.880;2023-02-02T12:15:48;101232.47;;;30.52;20.43
72370;BME280;60343;-32.030;115.880;2023-02-02T12:18:39;101237.25;;;30.65;20.29
72370;BME280;60343;-32.030;115.880;2023-02-02T12:21:36;101242.22;;;30.68;20.12
72370;BME280;60343;-32.030;115.880;2023-02-02T12:24:28;101234.72;;;30.68;20.38
72370;BME280;60343;-32.030;115.880;2023-02-02T12:27:22;101237.75;;;30.72;20.15
72370;BME280;60343;-32.030;115.880;2023-02-02T12:30:22;101251.44;;;30.58;20.49
72370;BME280;60343;-32.030;115.880;2023-02-02T12:33:12;101243.25;;;30.48;20.35
72370;BME280;60343;-32.030;115.880;2023-02-02T12:36:14;101242.50;;;30.43;20.50
72370;BME280;60343;-32.030;115.880;2023-02-02T12:39:12;101241.06;;;30.45;20.54
72370;BME280;60343;-32.030;115.880;2023-02-02T12:42:22;101254.72;;;30.37;20.58
72370;BME280;60343;-32.030;115.880;2023-02-02T12:45:24;101257.22;;;30.33;20.93
72370;BME280;60343;-32.030;115.880;2023-02-02T12:48:23;101251.47;;;30.30;21.09
72370;BME280;60343;-32.030;115.880;2023-02-02T12:51:15;101254.88;;;30.21;21.32
72370;BME280;60343;-32.030;115.880;2023-02-02T12:54:08;101252.56;;;30.05;21.66
72370;BME280;60343;-32.030;115.880;2023-02-02T12:56:53;101234.00;;;30.10;21.77
72370;BME280;60343;-32.030;115.880;2023-02-02T13:00:08;101253.88;;;30.12;21.81
72370;BME280;60343;-32.030;115.880;2023-02-02T13:03:04;101242.22;;;29.92;22.34
72370;BME280;60343;-32.030;115.880;2023-02-02T13:05:56;101251.31;;;29.92;22.49
72370;BME280;60343;-32.030;115.880;2023-02-02T13:08:41;101253.50;;;29.95;22.54
72370;BME280;60343;-32.030;115.880;2023-02-02T13:11:38;101254.09;;;29.87;22.80
72370;BME280;60343;-32.030;115.880;2023-02-02T13:14:21;101248.34;;;29.78;23.18
72370;BME280;60343;-32.030;115.880;2023-02-02T13:17:10;101250.56;;;29.81;23.25
72370;BME280;60343;-32.030;115.880;2023-02-02T13:19:52;101263.28;;;29.77;23.34
72370;BME280;60343;-32.030;115.880;2023-02-02T13:22:36;101262.84;;;29.65;23.48
72370;BME280;60343;-32.030;115.880;2023-02-02T13:25:27;101256.72;;;29.68;23.56
72370;BME280;60343;-32.030;115.880;2023-02-02T13:28:08;101262.84;;;29.65;23.71
72370;BME280;60343;-32.030;115.880;2023-02-02T13:30:52;101252.38;;;29.62;23.73
72370;BME280;60343;-32.030;115.880;2023-02-02T13:33:59;101262.03;;;29.60;23.57
72370;BME280;60343;-32.030;115.880;2023-02-02T13:36:42;101257.41;;;29.55;23.68
72370;BME280;60343;-32.030;115.880;2023-02-02T13:39:32;101273.78;;;29.41;23.94
72370;BME280;60343;-32.030;115.880;2023-02-02T13:42:21;101262.47;;;29.38;24.15